createdAt,value
2023-02-11T00:03:08.136Z,83.89
2023-02-11T00:07:19.910Z,83.62
2023-02-11T00:11:36.033Z,83.57
2023-02-11T00:15:57.387Z,83.32
2023-02-11T00:20:10.718Z,83.10
2023-02-11T00:24:23.237Z,83.05
2023-02-11T00:28:28.401Z,82.93
2023-02-11T00:32:34.531Z,83.00
2023-02-11T00:36:46.734Z,83.13
2023-02-11T00:40:58.938Z,83.29
2023-02-11T00:45:11.734Z,83.33
2023-02-11T00:49:22.506Z,83.22
2023-02-11T00:53:51.030Z,83.13
2023-02-11T01:02:29.895Z,82.83
2023-02-11T01:06:40.571Z,82.77
2023-02-11T01:10:53.196Z,82.64
2023-02-11T01:15:10.454Z,82.67
2023-02-11T01:19:22.503Z,82.72
2023-02-11T01:23:35.560Z,83.00
2023-02-11T01:27:55.007Z,83.10
2023-02-11T01:32:31.122Z,83.21
2023-02-11T01:36:43.480Z,83.19
2023-02-11T01:40:55.518Z,83.31
2023-02-11T01:45:07.499Z,83.31
2023-02-11T01:49:18.347Z,83.42
2023-02-11T01:53:28.957Z,83.42
2023-02-11T01:57:44.157Z,83.36
2023-02-11T02:01:56.401Z,83.46
2023-02-11T02:06:13.213Z,83.62
2023-02-11T02:10:25.579Z,83.62
2023-02-11T02:14:37.806Z,83.73
2023-02-11T02:18:55.935Z,83.84
2023-02-11T02:23:06.508Z,84.10
2023-02-11T02:27:13.287Z,84.32
2023-02-11T02:31:23.608Z,84.52
2023-02-11T02:35:31.738Z,84.88
2023-02-11T02:39:46.332Z,85.40
2023-02-11T02:43:58.535Z,85.92
2023-02-11T02:48:10.457Z,86.41
2023-02-11T02:52:35.052Z,86.95
2023-02-11T02:57:03.569Z,87.20
2023-02-11T03:01:41.134Z,87.65
2023-02-11T03:05:58.196Z,87.95
2023-02-11T03:10:08.271Z,88.27
2023-02-11T03:14:14.562Z,88.40
2023-02-11T03:18:26.649Z,88.49
2023-02-11T03:22:33.176Z,88.71
2023-02-11T03:26:44.195Z,88.91
2023-02-11T03:30:54.737Z,89.07
2023-02-11T03:35:12.838Z,89.24
2023-02-11T03:39:34.061Z,89.34
2023-02-11T03:43:58.564Z,89.54
2023-02-11T03:48:10.656Z,89.78
2023-02-11T03:52:22.836Z,89.98
2023-02-11T03:56:34.352Z,90.05
2023-02-11T04:00:46.582Z,90.13
2023-02-11T04:04:58.689Z,90.13
2023-02-11T04:09:11.154Z,90.19
2023-02-11T04:13:23.311Z,90.27
2023-02-11T04:17:35.666Z,90.25
2023-02-11T04:21:47.811Z,90.10
2023-02-11T04:26:00.100Z,90.06
2023-02-11T04:30:13.076Z,90.01
2023-02-11T04:34:24.991Z,89.99
2023-02-11T04:38:36.851Z,90.04
2023-02-11T04:42:48.631Z,89.98
2023-02-11T04:51:32.933Z,89.86
2023-02-11T04:55:44.978Z,89.64
2023-02-11T04:59:59.207Z,89.41
2023-02-11T05:04:11.729Z,89.29
2023-02-11T05:08:25.010Z,89.19
2023-02-11T05:12:36.933Z,89.14
2023-02-11T05:16:48.003Z,89.04
2023-02-11T05:21:00.007Z,89.12
2023-02-11T05:25:12.183Z,89.23
2023-02-11T05:29:23.773Z,89.34
2023-02-11T05:33:35.767Z,89.49
2023-02-11T05:37:47.739Z,89.35
2023-02-11T05:41:59.938Z,89.28
2023-02-11T05:46:12.307Z,89.27
2023-02-11T05:50:26.556Z,89.39
2023-02-11T05:54:38.451Z,89.52
2023-02-11T05:58:54.292Z,89.51
2023-02-11T06:03:12.161Z,89.44
2023-02-11T06:07:24.605Z,89.59
2023-02-11T06:11:40.414Z,89.51
2023-02-11T06:16:42.416Z,89.33
2023-02-11T06:20:47.028Z,89.38
2023-02-11T06:25:01.730Z,89.46
2023-02-11T06:29:14.805Z,89.43
2023-02-11T06:33:39.634Z,89.42
2023-02-11T06:37:51.852Z,89.26
2023-02-11T06:42:02.745Z,89.09
2023-02-11T06:46:10.176Z,89.12
2023-02-11T06:50:26.324Z,88.94
2023-02-11T06:54:40.689Z,88.79
2023-02-11T06:58:56.757Z,88.58
2023-02-11T07:03:08.792Z,89.00
2023-02-11T07:07:21.515Z,89.08
2023-02-11T07:11:32.989Z,88.93
2023-02-11T07:15:40.544Z,88.97
2023-02-11T07:19:54.917Z,89.15
2023-02-11T07:24:22.852Z,89.02
2023-02-11T07:28:34.034Z,88.96
2023-02-11T07:32:46.664Z,88.99
2023-02-11T07:36:53.656Z,89.04
2023-02-11T07:45:32.089Z,88.93
2023-02-11T07:49:50.063Z,88.68
2023-02-11T07:53:55.303Z,88.55
2023-02-11T07:58:08.052Z,88.75
2023-02-11T08:02:29.890Z,88.65
2023-02-11T08:06:45.301Z,88.39
2023-02-11T08:10:59.873Z,88.55
2023-02-11T08:15:16.384Z,88.50
2023-02-11T08:19:29.143Z,88.44
2023-02-11T08:23:42.292Z,88.22
2023-02-11T08:27:57.452Z,88.23
2023-02-11T08:32:57.727Z,88.23
2023-02-11T08:36:59.190Z,88.29
2023-02-11T08:41:06.232Z,88.27
2023-02-11T08:45:23.305Z,88.34
2023-02-11T08:54:09.979Z,88.95
2023-02-11T08:58:22.442Z,89.46
2023-02-11T09:02:34.791Z,89.68
2023-02-11T09:06:47.017Z,89.70
2023-02-11T09:10:59.682Z,90.04
2023-02-11T09:15:18.645Z,90.41
2023-02-11T09:19:23.611Z,90.72
2023-02-11T09:23:37.638Z,90.83
2023-02-11T09:27:52.406Z,90.78
2023-02-11T09:32:32.914Z,90.69
2023-02-11T09:36:44.735Z,90.66
2023-02-11T09:41:16.365Z,90.51
2023-02-11T09:45:27.915Z,90.41
2023-02-11T09:49:46.356Z,90.52
2023-02-11T09:54:06.188Z,90.24
2023-02-11T09:58:19.113Z,90.06
2023-02-11T10:02:37.805Z,89.96
2023-02-11T10:07:19.395Z,89.89
2023-02-11T10:11:32.448Z,89.73
2023-02-11T10:15:47.899Z,89.61
2023-02-11T10:19:54.022Z,89.50
2023-02-11T10:24:06.744Z,89.54
2023-02-11T10:28:13.178Z,89.48
2023-02-11T10:32:25.332Z,89.01
2023-02-11T10:36:29.359Z,88.82
2023-02-11T10:40:42.413Z,88.71
2023-02-11T10:45:10.330Z,88.56
2023-02-11T10:49:25.196Z,88.47
2023-02-11T10:53:35.587Z,88.14
2023-02-11T10:57:48.908Z,87.96
2023-02-11T11:02:01.140Z,87.77
2023-02-11T11:06:12.955Z,87.59
2023-02-11T11:10:31.396Z,87.17
2023-02-11T11:14:43.303Z,86.87
2023-02-11T11:19:09.520Z,86.83
2023-02-11T11:23:35.535Z,86.78
2023-02-11T11:27:47.634Z,86.32
2023-02-11T11:31:59.962Z,86.17
2023-02-11T11:36:11.974Z,85.86
2023-02-11T11:40:25.255Z,85.56
2023-02-11T11:44:35.406Z,85.46
2023-02-11T11:48:46.267Z,85.45
2023-02-11T11:52:56.826Z,85.57
2023-02-11T11:57:09.549Z,85.52
2023-02-11T12:01:24.595Z,85.40
2023-02-11T12:05:39.472Z,85.48
2023-02-11T12:10:09.631Z,85.40
2023-02-11T12:14:33.529Z,85.30
2023-02-11T12:18:47.538Z,85.47
2023-02-11T12:23:00.271Z,85.45
2023-02-11T12:27:12.588Z,85.15
2023-02-11T12:31:30.811Z,85.06
2023-02-11T12:36:02.541Z,84.97
2023-02-11T12:40:07.216Z,84.87
2023-02-11T12:44:19.439Z,84.78
2023-02-11T12:48:33.059Z,84.71
2023-02-11T12:52:55.699Z,84.63
2023-02-11T12:57:07.898Z,84.53
2023-02-11T13:01:26.191Z,84.33
2023-02-11T13:05:32.916Z,84.24
2023-02-11T13:09:45.012Z,84.13
2023-02-11T13:13:52.316Z,83.93
2023-02-11T13:18:04.576Z,83.77
2023-02-11T13:22:15.054Z,83.67
2023-02-11T13:26:46.946Z,83.53
2023-02-11T13:31:12.716Z,83.40
2023-02-11T13:35:31.710Z,83.58
2023-02-11T13:39:44.221Z,83.49
2023-02-11T13:44:06.308Z,83.36
2023-02-11T13:48:18.797Z,83.61
2023-02-11T13:52:28.129Z,83.71
2023-02-11T13:57:21.480Z,83.66
2023-02-11T14:01:37.077Z,83.50
2023-02-11T14:05:47.525Z,83.27
2023-02-11T14:09:50.033Z,83.08
2023-02-11T14:14:05.134Z,82.97
2023-02-11T14:18:19.807Z,82.83
2023-02-11T14:22:36.018Z,82.84
2023-02-11T14:27:00.141Z,83.13
2023-02-11T14:31:10.729Z,83.45
2023-02-11T14:40:11.681Z,83.97
2023-02-11T14:44:27.948Z,84.13
2023-02-11T14:48:49.685Z,84.25
2023-02-11T14:52:55.223Z,84.33
2023-02-11T14:57:21.538Z,84.44
2023-02-11T15:01:33.402Z,84.56
2023-02-11T15:05:44.508Z,84.70
2023-02-11T15:09:52.658Z,84.80
2023-02-11T15:14:13.696Z,84.91
2023-02-11T15:18:26.234Z,85.02
2023-02-11T15:22:39.879Z,85.12
2023-02-11T15:26:53.236Z,85.18
2023-02-11T15:31:05.997Z,85.20
2023-02-11T15:35:27.233Z,85.23
2023-02-11T15:39:40.905Z,85.29
2023-02-11T15:53:47.307Z,85.42
2023-02-11T16:02:27.142Z,85.50
2023-02-11T16:07:43.360Z,85.50
2023-02-11T16:16:16.955Z,85.51
2023-02-11T16:20:26.037Z,85.52
2023-02-11T16:24:55.084Z,85.50
2023-02-11T16:29:26.516Z,85.42
2023-02-11T16:33:56.894Z,85.39
2023-02-11T16:38:14.260Z,85.31
2023-02-11T16:42:50.885Z,85.26
2023-02-11T16:47:04.830Z,85.17
2023-02-11T16:51:18.731Z,85.03
2023-02-11T16:55:35.019Z,85.00
2023-02-11T16:59:52.293Z,84.83
2023-02-11T17:04:24.122Z,84.59
2023-02-11T17:08:59.417Z,84.57
2023-02-11T17:13:12.025Z,84.41
2023-02-11T17:17:25.905Z,84.28
2023-02-11T17:21:38.724Z,84.18
2023-02-11T17:25:52.940Z,84.09
2023-02-11T17:30:10.968Z,84.02
2023-02-11T17:34:26.350Z,83.93
2023-02-11T17:38:42.471Z,83.80
2023-02-11T17:42:55.775Z,83.64
2023-02-11T17:47:02.392Z,83.56
2023-02-11T17:51:17.847Z,83.41
2023-02-11T17:55:28.969Z,83.33
2023-02-11T17:59:40.227Z,83.41
2023-02-11T18:03:52.510Z,83.34
2023-02-11T18:08:08.126Z,83.23
2023-02-11T18:12:32.415Z,82.90
2023-02-11T18:16:48.225Z,82.90
2023-02-11T18:20:46.683Z,82.80
2023-02-11T18:25:00.249Z,82.89
2023-02-11T18:29:14.481Z,82.88
2023-02-11T18:33:27.230Z,82.70
2023-02-11T18:37:58.046Z,82.83
2023-02-11T18:42:11.251Z,82.85
2023-02-11T18:46:23.886Z,82.74
2023-02-11T18:50:36.316Z,82.73
2023-02-11T18:54:48.752Z,82.79
2023-02-11T18:58:59.329Z,82.75
2023-02-11T19:03:17.004Z,82.75
2023-02-11T19:07:39.992Z,82.78
2023-02-11T19:12:13.412Z,82.88
2023-02-11T19:16:25.696Z,82.92
2023-02-11T19:20:38.368Z,82.89
2023-02-11T19:24:50.632Z,82.88
2023-02-11T19:29:22.397Z,82.81
2023-02-11T19:33:26.516Z,82.81
2023-02-11T19:37:38.995Z,82.81
2023-02-11T19:41:51.068Z,82.75
2023-02-11T19:46:04.211Z,82.75
2023-02-11T19:50:17.144Z,82.72
2023-02-11T19:54:51.612Z,82.70
2023-02-11T19:58:54.824Z,82.66
2023-02-11T20:03:07.069Z,82.52
2023-02-11T20:07:19.154Z,82.45
2023-02-11T20:11:31.100Z,82.35
2023-02-11T20:15:35.692Z,82.17
2023-02-11T20:19:47.932Z,82.14
2023-02-11T20:23:52.425Z,81.99
2023-02-11T20:28:05.057Z,82.00
2023-02-11T20:32:18.024Z,81.95
2023-02-11T20:36:35.745Z,82.03
2023-02-11T20:41:01.531Z,81.98
2023-02-11T20:45:13.495Z,81.87
2023-02-11T20:53:52.615Z,81.81
2023-02-11T20:57:56.636Z,81.92
2023-02-11T21:02:09.214Z,81.89
2023-02-11T21:06:21.770Z,81.90
2023-02-11T21:10:34.337Z,81.82
2023-02-11T21:14:46.586Z,81.78
2023-02-11T21:18:59.796Z,81.73
2023-02-11T21:23:25.987Z,81.68
2023-02-11T21:27:29.822Z,81.77
2023-02-11T21:32:01.362Z,81.83
2023-02-11T21:36:34.583Z,81.90
2023-02-11T21:40:46.571Z,81.88
2023-02-11T21:44:58.996Z,81.78
2023-02-11T21:49:11.164Z,81.81
2023-02-11T21:53:18.149Z,81.79
2023-02-11T21:57:30.363Z,81.67
2023-02-11T22:01:42.973Z,81.57
2023-02-11T22:05:50.505Z,81.61
2023-02-11T22:10:03.639Z,81.49
2023-02-11T22:14:15.598Z,81.49
2023-02-11T22:18:27.521Z,81.75
2023-02-11T22:22:32.220Z,81.94
2023-02-11T22:26:47.285Z,81.95
2023-02-11T22:30:59.968Z,81.88
2023-02-11T22:35:12.666Z,81.89
2023-02-11T22:39:31.353Z,81.82
2023-02-11T22:43:43.266Z,81.81
2023-02-11T22:47:55.378Z,81.83
2023-02-11T22:52:07.693Z,81.86
2023-02-11T22:56:06.664Z,81.91
2023-02-11T23:00:18.712Z,81.89
2023-02-11T23:04:25.386Z,81.57
2023-02-11T23:08:37.431Z,81.20
2023-02-11T23:12:43.957Z,81.03
2023-02-11T23:16:56.036Z,81.02
2023-02-11T23:21:12.366Z,80.89
2023-02-11T23:25:24.687Z,80.93
2023-02-11T23:29:36.572Z,80.66
2023-02-11T23:33:48.928Z,80.90
2023-02-11T23:38:01.040Z,81.49
2023-02-11T23:42:13.530Z,81.53
2023-02-11T23:46:25.573Z,81.24
2023-02-11T23:50:38.156Z,81.06
2023-02-11T23:54:50.403Z,80.67
2023-02-11T23:59:02.036Z,80.38
